Time;durP1;ratioP1;P1;durP2;ratioP2;P2;SDS_P1;SDS_P2;PMS_P1;PMS_P2;Temp;Humidity;BMP_temperature;BMP_pressure;BME280_temperature;BME280_humidity;BME280_pressure;Samples;Min_cycle;Max_cycle;Signal;HPM_P1;HPM_P2
2024/01/27 00:02:21;;;;;;;5.63;0.90;;;4.80;99.90;;;;;;4995783;28;20040;-73
2024/01/27 00:04:48;;;;;;;2.22;0.65;;;4.80;99.90;;;;;;5011923;28;20037;-73
2024/01/27 00:07:14;;;;;;;2.22;0.30;;;4.80;99.90;;;;;;5011807;28;20124;-73
2024/01/27 00:09:40;;;;;;;1.60;0.75;;;4.80;99.90;;;;;;5012161;28;20121;-73
2024/01/27 00:12:06;;;;;;;3.50;0.60;;;4.90;99.90;;;;;;5012034;28;20113;-73
2024/01/27 00:14:32;;;;;;;1.20;0.50;;;4.80;99.90;;;;;;5012165;28;20537;-73
2024/01/27 00:16:58;;;;;;;0.50;0.30;;;4.80;99.90;;;;;;5011681;28;20491;-73
2024/01/27 00:19:23;;;;;;;2.70;0.65;;;4.80;99.90;;;;;;5011787;28;20372;-73
2024/01/27 00:21:49;;;;;;;3.20;0.70;;;4.80;99.90;;;;;;5011781;28;20044;-73
2024/01/27 00:24:15;;;;;;;2.92;0.60;;;4.80;99.90;;;;;;5011621;28;20105;-73
2024/01/27 00:26:41;;;;;;;7.55;0.70;;;4.80;99.90;;;;;;5011906;28;20385;-73
2024/01/27 00:29:07;;;;;;;1.60;0.68;;;4.80;99.90;;;;;;5011679;28;20086;-73
2024/01/27 00:31:32;;;;;;;1.17;0.50;;;4.80;99.90;;;;;;5011536;28;20424;-73
2024/01/27 00:33:58;;;;;;;4.53;0.95;;;4.70;99.90;;;;;;5011319;28;20049;-73
2024/01/27 00:36:23;;;;;;;2.67;1.00;;;4.70;99.90;;;;;;5011660;28;20050;-73
2024/01/27 00:38:49;;;;;;;0.90;0.40;;;4.70;99.90;;;;;;5027740;28;20515;-73
2024/01/27 00:41:18;;;;;;;0.90;0.55;;;4.70;99.90;;;;;;5011323;28;20079;-73
2024/01/27 00:43:44;;;;;;;1.08;0.50;;;4.70;99.90;;;;;;5011355;28;20041;-73
2024/01/27 00:46:09;;;;;;;0.77;0.30;;;4.70;99.90;;;;;;4995130;28;20038;-73
2024/01/27 00:48:35;;;;;;;2.00;0.68;;;4.70;99.90;;;;;;5010927;28;20038;-74
2024/01/27 00:51:01;;;;;;;3.53;0.80;;;4.70;99.90;;;;;;4994947;28;20049;-73
2024/01/27 00:53:26;;;;;;;3.85;0.73;;;4.60;99.90;;;;;;4994840;28;20042;-73
2024/01/27 00:55:52;;;;;;;2.42;0.40;;;4.60;99.90;;;;;;5011176;28;20428;-73
2024/01/27 00:58:17;;;;;;;6.90;1.30;;;4.60;99.90;;;;;;5010742;28;20172;-73
2024/01/27 01:00:43;;;;;;;3.78;0.80;;;4.60;99.90;;;;;;4994339;28;20048;-73
2024/01/27 01:03:09;;;;;;;1.58;0.45;;;4.60;99.90;;;;;;5010978;28;20065;-73
2024/01/27 01:05:34;;;;;;;1.85;0.88;;;4.60;99.90;;;;;;4994909;28;20045;-73
2024/01/27 01:08:00;;;;;;;2.88;0.75;;;4.60;99.90;;;;;;5010839;28;20486;-73
2024/01/27 01:10:26;;;;;;;1.60;0.80;;;4.60;99.90;;;;;;5010750;28;20046;-73
2024/01/27 01:12:52;;;;;;;4.38;0.90;;;4.50;99.90;;;;;;4994700;28;20038;-73
2024/01/27 01:15:17;;;;;;;1.33;0.82;;;4.50;99.90;;;;;;4994448;28;20410;-73
2024/01/27 01:17:43;;;;;;;5.80;0.55;;;4.50;99.90;;;;;;5027004;28;20068;-74
2024/01/27 01:20:09;;;;;;;6.22;0.52;;;4.50;99.90;;;;;;5010872;28;20488;-73
2024/01/27 01:22:35;;;;;;;1.90;0.82;;;4.50;99.90;;;;;;5011936;28;20038;-73
2024/01/27 01:25:00;;;;;;;2.03;0.73;;;4.50;99.90;;;;;;5027019;28;20455;-73
2024/01/27 01:27:26;;;;;;;0.85;0.40;;;4.50;99.90;;;;;;4993923;28;20034;-73
2024/01/27 01:29:51;;;;;;;7.45;0.90;;;4.50;99.90;;;;;;5010800;28;20420;-73
2024/01/27 01:32:17;;;;;;;6.70;0.80;;;4.50;99.90;;;;;;5010329;28;20546;-73
2024/01/27 01:34:43;;;;;;;2.50;0.70;;;4.50;99.90;;;;;;5010478;28;20042;-73
2024/01/27 01:37:08;;;;;;;2.13;0.43;;;4.50;99.90;;;;;;5010606;28;20045;-73
2024/01/27 01:39:34;;;;;;;0.63;0.40;;;4.50;99.90;;;;;;5010201;28;20038;-73
2024/01/27 01:41:59;;;;;;;2.35;0.40;;;4.50;99.90;;;;;;5010392;28;20041;-73
2024/01/27 01:44:29;;;;;;;2.80;0.77;;;4.50;99.90;;;;;;5010182;28;20042;-73
2024/01/27 01:46:56;;;;;;;0.73;0.35;;;4.50;99.90;;;;;;5010159;28;20036;-73
2024/01/27 01:49:22;;;;;;;1.98;0.73;;;4.40;99.90;;;;;;5010041;28;20046;-74
2024/01/27 01:51:48;;;;;;;3.10;0.40;;;4.40;99.90;;;;;;5010117;28;20034;-73
2024/01/27 01:54:13;;;;;;;0.55;0.45;;;4.50;99.90;;;;;;5010263;28;20045;-73
2024/01/27 01:56:39;;;;;;;0.98;0.65;;;4.50;99.90;;;;;;5010212;28;20220;-73
2024/01/27 01:59:06;;;;;;;3.72;0.50;;;4.40;99.90;;;;;;5009889;28;20045;-73
2024/01/27 02:01:31;;;;;;;4.20;0.73;;;4.40;99.90;;;;;;5009792;28;20041;-73
2024/01/27 02:03:57;;;;;;;0.55;0.50;;;4.40;99.90;;;;;;5010158;28;20038;-73
2024/01/27 02:06:24;;;;;;;5.18;0.55;;;4.40;99.90;;;;;;5009916;28;20056;-73
2024/01/27 02:08:49;;;;;;;5.38;0.82;;;4.40;99.90;;;;;;4993699;28;20048;-73
2024/01/27 02:11:16;;;;;;;0.88;0.45;;;4.40;99.90;;;;;;5025580;28;20045;-73
2024/01/27 02:13:42;;;;;;;3.40;0.50;;;4.40;99.90;;;;;;5010232;28;20081;-74
2024/01/27 02:16:07;;;;;;;0.65;0.30;;;4.40;99.90;;;;;;4993380;28;20517;-73
2024/01/27 02:18:33;;;;;;;4.75;1.33;;;4.40;99.90;;;;;;5009628;28;20038;-73
2024/01/27 02:20:59;;;;;;;1.52;0.50;;;4.40;99.90;;;;;;5009962;28;20522;-73
2024/01/27 02:23:24;;;;;;;1.50;0.52;;;4.40;99.90;;;;;;5009919;28;20060;-73
2024/01/27 02:25:50;;;;;;;1.40;0.30;;;4.40;99.90;;;;;;5009650;28;20038;-73
2024/01/27 02:28:17;;;;;;;1.35;0.35;;;4.40;99.90;;;;;;5009535;28;20049;-73
2024/01/27 02:30:43;;;;;;;2.22;0.60;;;4.40;99.90;;;;;;5009460;28;20046;-73
2024/01/27 02:33:08;;;;;;;3.17;0.50;;;4.30;99.90;;;;;;5009769;28;20125;-73
2024/01/27 02:35:34;;;;;;;2.72;0.75;;;4.40;99.90;;;;;;5009776;28;20443;-73
2024/01/27 02:38:00;;;;;;;4.18;0.38;;;4.30;99.90;;;;;;5026041;28;20430;-73
2024/01/27 02:40:25;;;;;;;2.22;0.40;;;4.30;99.90;;;;;;4992980;28;20482;-74
2024/01/27 02:42:52;;;;;;;1.63;0.70;;;4.40;99.90;;;;;;5009515;28;20046;-74
2024/01/27 02:45:17;;;;;;;0.55;0.30;;;4.30;99.90;;;;;;5009245;28;20045;-73
2024/01/27 02:47:43;;;;;;;1.63;0.60;;;4.40;99.90;;;;;;5009715;28;20065;-73
2024/01/27 02:50:09;;;;;;;2.30;0.90;;;4.40;99.90;;;;;;5009512;28;20038;-73
2024/01/27 02:52:35;;;;;;;1.60;0.28;;;4.40;99.90;;;;;;5009389;28;20046;-73
2024/01/27 02:55:01;;;;;;;0.70;0.20;;;4.40;99.90;;;;;;4993098;28;20044;-73
2024/01/27 02:57:26;;;;;;;2.63;0.38;;;4.40;99.90;;;;;;5009229;28;20050;-73
2024/01/27 02:59:52;;;;;;;1.65;0.50;;;4.40;99.90;;;;;;5009079;28;20034;-73
2024/01/27 03:02:18;;;;;;;3.20;0.70;;;4.30;99.90;;;;;;5009823;28;20038;-73
2024/01/27 03:04:43;;;;;;;0.93;0.57;;;4.30;99.90;;;;;;5009567;28;20579;-73
2024/01/27 03:07:09;;;;;;;0.88;0.57;;;4.30;99.90;;;;;;5009545;28;20503;-73
2024/01/27 03:09:36;;;;;;;4.57;0.70;;;4.30;99.90;;;;;;5009110;28;20092;-73
2024/01/27 03:12:02;;;;;;;1.00;0.20;;;4.30;99.90;;;;;;5009275;28;20125;-73
2024/01/27 03:14:27;;;;;;;1.17;0.50;;;4.30;99.90;;;;;;5008864;28;20117;-73
2024/01/27 03:16:53;;;;;;;1.25;0.40;;;4.30;99.90;;;;;;5009259;28;20452;-73
2024/01/27 03:19:19;;;;;;;0.60;0.30;;;4.30;99.90;;;;;;5025455;28;20042;-73
2024/01/27 03:21:45;;;;;;;1.63;0.47;;;4.20;99.90;;;;;;5009194;28;20041;-73
2024/01/27 03:24:11;;;;;;;0.65;0.17;;;4.20;99.90;;;;;;5028652;28;20038;-73
2024/01/27 03:26:36;;;;;;;1.20;0.30;;;4.30;99.90;;;;;;5012666;28;20358;-73
2024/01/27 03:29:02;;;;;;;1.40;0.38;;;4.20;99.90;;;;;;5012716;28;20240;-74
2024/01/27 03:31:34;;;;;;;2.42;0.40;;;4.20;99.90;;;;;;5012959;28;20455;-73
2024/01/27 03:34:01;;;;;;;2.05;0.40;;;4.20;99.90;;;;;;4996432;28;20073;-73
2024/01/27 03:36:27;;;;;;;1.92;0.50;;;4.20;99.90;;;;;;4996232;28;20043;-73
2024/01/27 03:38:53;;;;;;;1.05;0.38;;;4.20;99.90;;;;;;5012448;28;20061;-73
2024/01/27 03:41:18;;;;;;;1.30;0.40;;;4.20;99.90;;;;;;5012402;28;20246;-73
2024/01/27 03:43:44;;;;;;;1.95;0.50;;;4.20;99.90;;;;;;5012212;28;20064;-74
2024/01/27 03:46:10;;;;;;;2.00;0.28;;;4.10;99.90;;;;;;5012947;28;20399;-74
2024/01/27 03:48:35;;;;;;;2.33;0.60;;;4.10;99.90;;;;;;5012382;28;20558;-74
2024/01/27 03:51:01;;;;;;;2.47;0.68;;;4.10;99.90;;;;;;5012531;28;20069;-74
2024/01/27 03:53:27;;;;;;;3.35;0.52;;;4.10;99.90;;;;;;4996035;28;20044;-74
2024/01/27 03:55:53;;;;;;;1.02;0.38;;;4.10;99.90;;;;;;5012593;28;20042;-74
2024/01/27 03:58:19;;;;;;;2.08;1.42;;;4.10;99.90;;;;;;5012036;28;20045;-74
2024/01/27 04:00:44;;;;;;;1.13;0.30;;;4.10;99.90;;;;;;5011952;28;20483;-74
2024/01/27 04:03:10;;;;;;;2.33;0.50;;;4.10;99.90;;;;;;5012629;28;20129;-74
2024/01/27 04:05:36;;;;;;;4.88;0.35;;;4.10;99.90;;;;;;5012014;28;20352;-74
2024/01/27 04:08:02;;;;;;;1.55;0.52;;;4.10;99.90;;;;;;5012063;28;20049;-74
2024/01/27 04:10:28;;;;;;;3.05;0.55;;;4.10;99.90;;;;;;5011901;28;20478;-74
2024/01/27 04:12:53;;;;;;;0.57;0.50;;;4.10;99.90;;;;;;5012093;28;20049;-74
2024/01/27 04:15:19;;;;;;;5.00;0.73;;;4.10;99.90;;;;;;5011850;28;20415;-74
2024/01/27 04:17:45;;;;;;;1.65;0.40;;;4.10;99.90;;;;;;5011757;28;20038;-74
2024/01/27 04:20:11;;;;;;;0.77;0.50;;;4.00;99.90;;;;;;5011875;28;20069;-74
2024/01/27 04:22:36;;;;;;;0.55;0.22;;;4.00;99.90;;;;;;5012082;28;20394;-74
2024/01/27 04:25:03;;;;;;;1.85;0.65;;;4.00;99.90;;;;;;5012073;28;20042;-74
2024/01/27 04:27:29;;;;;;;1.20;0.60;;;4.00;99.90;;;;;;4994905;28;20042;-74
2024/01/27 04:29:56;;;;;;;3.55;0.60;;;4.00;99.90;;;;;;5011893;28;20052;-74
2024/01/27 04:32:23;;;;;;;1.42;0.50;;;4.00;99.90;;;;;;4995213;28;20118;-74
2024/01/27 04:34:49;;;;;;;2.35;0.40;;;4.00;99.90;;;;;;4994524;28;20127;-74
2024/01/27 04:37:14;;;;;;;0.93;0.60;;;4.00;99.90;;;;;;5011489;28;20074;-74
2024/01/27 04:39:40;;;;;;;0.52;0.35;;;4.00;99.90;;;;;;5011577;28;20042;-74
2024/01/27 04:42:06;;;;;;;2.70;0.57;;;4.00;99.90;;;;;;5011310;28;20125;-74
2024/01/27 04:44:32;;;;;;;2.67;0.80;;;4.00;99.90;;;;;;5011305;28;20562;-74
2024/01/27 04:46:58;;;;;;;2.15;0.80;;;4.00;99.90;;;;;;4995008;28;20128;-74
2024/01/27 04:49:24;;;;;;;1.48;0.70;;;4.00;99.90;;;;;;5011248;28;20133;-74
2024/01/27 04:51:49;;;;;;;2.25;0.50;;;4.00;99.90;;;;;;5011266;28;20046;-74
2024/01/27 04:54:15;;;;;;;1.98;0.93;;;4.00;99.90;;;;;;4994819;28;20049;-74
2024/01/27 04:56:41;;;;;;;2.38;0.40;;;4.00;99.90;;;;;;5011048;28;20038;-74
2024/01/27 04:59:07;;;;;;;2.75;0.77;;;4.00;99.90;;;;;;5010887;28;20124;-74
2024/01/27 05:01:33;;;;;;;6.22;0.80;;;4.00;99.90;;;;;;5010963;28;20046;-74
2024/01/27 05:03:58;;;;;;;1.30;0.50;;;4.00;99.90;;;;;;5011323;28;20069;-74
2024/01/27 05:06:24;;;;;;;4.35;0.95;;;4.00;99.90;;;;;;5010862;28;20559;-74
2024/01/27 05:08:50;;;;;;;3.30;0.98;;;3.90;99.90;;;;;;5010925;28;20046;-74
2024/01/27 05:11:24;;;;;;;3.58;0.35;;;4.00;99.90;;;;;;5010383;28;20064;-74
2024/01/27 05:13:50;;;;;;;6.65;1.25;;;4.00;99.90;;;;;;5010992;28;20046;-74
2024/01/27 05:16:16;;;;;;;1.45;0.57;;;4.00;99.90;;;;;;5010634;28;20046;-74
2024/01/27 05:18:41;;;;;;;1.65;0.50;;;4.00;99.90;;;;;;5010823;28;20046;-74
2024/01/27 05:21:07;;;;;;;0.65;0.40;;;4.00;99.90;;;;;;5010989;28;20043;-74
2024/01/27 05:23:33;;;;;;;1.90;1.50;;;3.90;99.90;;;;;;5010477;28;20385;-74
2024/01/27 05:25:58;;;;;;;2.33;0.85;;;4.00;99.90;;;;;;4994471;28;20412;-74
2024/01/27 05:28:24;;;;;;;1.88;0.70;;;3.90;99.90;;;;;;5010408;28;20046;-74
2024/01/27 05:30:49;;;;;;;1.20;0.63;;;3.90;99.90;;;;;;5010378;28;20045;-74
2024/01/27 05:33:16;;;;;;;7.60;0.57;;;3.90;99.90;;;;;;5010444;28;20046;-73
2024/01/27 05:35:41;;;;;;;2.47;0.50;;;3.80;99.90;;;;;;5010753;28;20046;-71
2024/01/27 05:38:07;;;;;;;0.98;0.50;;;3.90;99.90;;;;;;5010104;28;20050;-71
2024/01/27 05:40:33;;;;;;;2.42;0.60;;;3.90;99.90;;;;;;5010156;28;20038;-71
2024/01/27 05:42:58;;;;;;;1.67;0.63;;;3.80;99.90;;;;;;5010454;28;20599;-71
2024/01/27 05:45:24;;;;;;;0.98;0.40;;;3.90;99.90;;;;;;5010036;28;20124;-72
2024/01/27 05:47:50;;;;;;;4.55;0.73;;;3.90;99.90;;;;;;5010553;28;20049;-72
2024/01/27 05:50:16;;;;;;;2.70;0.98;;;3.80;99.90;;;;;;5026681;28;20053;-73
2024/01/27 05:52:41;;;;;;;1.45;0.70;;;3.80;99.90;;;;;;5010088;28;20121;-72
2024/01/27 05:55:08;;;;;;;4.18;0.98;;;3.80;99.90;;;;;;5009967;28;20046;-72
2024/01/27 05:57:34;;;;;;;1.52;0.88;;;3.80;99.90;;;;;;5009975;28;20048;-72
2024/01/27 06:00:00;;;;;;;1.65;0.38;;;3.80;99.90;;;;;;5010053;28;20117;-72
2024/01/27 06:02:25;;;;;;;0.60;0.40;;;3.80;99.90;;;;;;5009810;28;20042;-72
2024/01/27 06:04:51;;;;;;;0.45;0.30;;;3.80;99.90;;;;;;5010054;28;20038;-73
2024/01/27 06:07:16;;;;;;;1.63;0.90;;;3.80;99.90;;;;;;5009940;28;20041;-73
2024/01/27 06:09:42;;;;;;;1.65;0.70;;;3.70;99.90;;;;;;5009945;28;20034;-73
2024/01/27 06:12:08;;;;;;;2.53;0.50;;;3.70;99.90;;;;;;5009964;28;20096;-73
2024/01/27 06:14:33;;;;;;;2.55;0.80;;;3.70;99.90;;;;;;5009740;28;20420;-73
2024/01/27 06:16:59;;;;;;;1.50;0.50;;;3.70;99.90;;;;;;5009716;28;20038;-73
2024/01/27 06:19:25;;;;;;;1.88;0.63;;;3.70;99.90;;;;;;5009618;28;20451;-73
2024/01/27 06:21:51;;;;;;;1.98;0.73;;;3.70;99.90;;;;;;5009693;28;20042;-73
2024/01/27 06:24:16;;;;;;;2.95;0.90;;;3.70;99.90;;;;;;5009534;28;20046;-73
2024/01/27 06:26:42;;;;;;;1.02;0.60;;;3.70;99.90;;;;;;5026126;28;20412;-73
2024/01/27 06:29:08;;;;;;;2.92;0.70;;;3.80;99.90;;;;;;4993495;28;20037;-73
2024/01/27 06:31:33;;;;;;;1.63;0.50;;;3.80;99.90;;;;;;5009707;28;20046;-73
2024/01/27 06:33:59;;;;;;;1.42;0.45;;;3.70;99.90;;;;;;5009903;28;20060;-73
2024/01/27 06:36:27;;;;;;;1.35;0.60;;;3.80;99.90;;;;;;5009496;28;20049;-73
2024/01/27 06:38:52;;;;;;;2.70;0.68;;;3.70;99.90;;;;;;5009593;28;20092;-73
2024/01/27 06:41:18;;;;;;;2.45;0.47;;;3.70;99.90;;;;;;5009582;28;20073;-73
2024/01/27 06:43:44;;;;;;;1.88;0.57;;;3.70;99.90;;;;;;5009333;28;20049;-73
2024/01/27 06:46:10;;;;;;;2.55;0.80;;;3.70;99.90;;;;;;5009692;28;20374;-73
2024/01/27 06:48:35;;;;;;;1.10;0.57;;;3.70;99.90;;;;;;5009778;28;20053;-73
2024/01/27 06:51:01;;;;;;;1.25;0.57;;;3.70;99.90;;;;;;5009620;28;20137;-73
2024/01/27 06:53:27;;;;;;;4.28;1.30;;;3.70;99.90;;;;;;5009266;28;20045;-73
2024/01/27 06:55:53;;;;;;;3.05;0.68;;;3.70;99.90;;;;;;5009420;28;20038;-73
2024/01/27 06:58:18;;;;;;;1.13;0.70;;;3.70;99.90;;;;;;5010846;28;20124;-73
2024/01/27 07:00:44;;;;;;;1.17;0.30;;;3.70;99.90;;;;;;5013294;28;20512;-73
2024/01/27 07:03:11;;;;;;;0.98;0.65;;;3.70;99.90;;;;;;5013380;28;20515;-73
2024/01/27 07:05:40;;;;;;;3.55;0.55;;;3.70;99.90;;;;;;5012995;28;20136;-73
2024/01/27 07:08:09;;;;;;;3.60;0.63;;;3.70;99.90;;;;;;5013089;28;20053;-73
2024/01/27 07:10:35;;;;;;;1.20;0.98;;;3.70;99.90;;;;;;5013011;28;20100;-73
2024/01/27 07:13:01;;;;;;;4.90;1.20;;;3.70;99.90;;;;;;5012891;28;20284;-73
2024/01/27 07:15:27;;;;;;;1.50;0.65;;;3.70;99.90;;;;;;5012852;28;20056;-73
2024/01/27 07:17:54;;;;;;;3.55;0.90;;;3.70;99.90;;;;;;4996840;28;20046;-73
2024/01/27 07:20:20;;;;;;;4.85;0.90;;;3.70;99.90;;;;;;4996383;28;20038;-73
2024/01/27 07:22:47;;;;;;;5.78;0.88;;;3.70;99.90;;;;;;5012957;28;20105;-73
2024/01/27 07:25:13;;;;;;;2.33;1.10;;;3.70;99.90;;;;;;5012901;28;20136;-73
2024/01/27 07:27:39;;;;;;;7.28;1.20;;;3.70;99.90;;;;;;5012989;28;20077;-73
2024/01/27 07:30:06;;;;;;;4.90;1.15;;;3.70;99.90;;;;;;4996821;28;20088;-73
2024/01/27 07:32:32;;;;;;;1.75;1.10;;;3.70;99.90;;;;;;5029087;28;20046;-73
2024/01/27 07:34:57;;;;;;;2.70;1.23;;;3.70;99.90;;;;;;5012482;28;20049;-73
2024/01/27 07:37:23;;;;;;;4.78;0.90;;;3.70;99.90;;;;;;5012489;28;20510;-73
2024/01/27 07:39:49;;;;;;;3.08;1.38;;;3.70;99.90;;;;;;5012514;28;20080;-73
2024/01/27 07:42:15;;;;;;;5.32;1.42;;;3.70;99.90;;;;;;5012527;28;20069;-73
2024/01/27 07:44:42;;;;;;;4.32;1.35;;;3.70;99.90;;;;;;5012771;28;20096;-73
2024/01/27 07:47:08;;;;;;;2.92;1.02;;;3.70;99.90;;;;;;4996292;28;20034;-73
2024/01/27 07:49:34;;;;;;;8.13;2.03;;;3.60;99.90;;;;;;5012315;28;20073;-73
2024/01/27 07:52:00;;;;;;;2.35;1.10;;;3.70;99.90;;;;;;4996100;28;20492;-73
2024/01/27 07:54:26;;;;;;;3.58;1.40;;;3.70;99.90;;;;;;5012161;28;20141;-73
2024/01/27 07:56:52;;;;;;;3.40;1.20;;;3.70;99.90;;;;;;5012215;28;20049;-73
2024/01/27 07:59:18;;;;;;;2.25;1.23;;;3.70;99.90;;;;;;5012135;28;20038;-73
2024/01/27 08:01:44;;;;;;;4.28;1.08;;;3.70;99.90;;;;;;4995896;28;20046;-73
2024/01/27 08:04:10;;;;;;;2.80;1.17;;;3.70;99.90;;;;;;5012184;28;20125;-73
2024/01/27 08:06:49;;;;;;;1.70;0.88;;;3.70;99.90;;;;;;5012043;28;20045;-73
2024/01/27 08:09:16;;;;;;;1.77;0.95;;;3.70;99.90;;;;;;4994557;28;20129;-73
2024/01/27 08:11:42;;;;;;;1.90;0.95;;;3.70;99.90;;;;;;4995869;28;20438;-73
2024/01/27 08:14:08;;;;;;;3.72;1.15;;;3.70;99.90;;;;;;5011984;28;20046;-73
2024/01/27 08:16:33;;;;;;;3.80;1.38;;;3.80;99.90;;;;;;5011850;28;20048;-73
2024/01/27 08:18:59;;;;;;;3.53;1.58;;;3.70;99.90;;;;;;5011784;28;20480;-73
2024/01/27 08:21:25;;;;;;;6.65;1.17;;;3.80;99.90;;;;;;5013308;28;20038;-73
2024/01/27 08:23:50;;;;;;;6.38;1.45;;;3.80;99.90;;;;;;5011857;28;20041;-73
2024/01/27 08:26:16;;;;;;;3.42;1.70;;;3.80;99.90;;;;;;5011645;28;20554;-73
2024/01/27 08:28:42;;;;;;;5.03;1.40;;;3.80;99.90;;;;;;5011606;28;20049;-73
2024/01/27 08:31:08;;;;;;;7.03;1.42;;;3.80;99.90;;;;;;5011586;28;20048;-73
2024/01/27 08:33:33;;;;;;;1.50;0.75;;;3.80;99.90;;;;;;5011560;28;20038;-73
2024/01/27 08:35:59;;;;;;;1.45;0.98;;;3.80;99.90;;;;;;5011632;28;20471;-73
2024/01/27 08:38:25;;;;;;;2.88;2.05;;;3.90;99.90;;;;;;5011401;28;20041;-73
2024/01/27 08:40:50;;;;;;;2.47;1.08;;;3.90;99.90;;;;;;4995221;28;20119;-73
2024/01/27 08:43:16;;;;;;;4.60;0.88;;;3.90;99.90;;;;;;5011532;28;20384;-73
2024/01/27 08:45:42;;;;;;;2.47;1.13;;;3.90;99.90;;;;;;5011408;28;20503;-73
2024/01/27 08:48:09;;;;;;;2.63;1.20;;;3.90;99.90;;;;;;5011571;28;20037;-73
2024/01/27 08:50:35;;;;;;;3.45;1.25;;;4.00;99.90;;;;;;5011374;28;20056;-73
2024/01/27 08:53:01;;;;;;;6.55;1.40;;;4.00;99.90;;;;;;5011525;28;20037;-73
2024/01/27 08:55:27;;;;;;;3.58;1.35;;;4.00;99.90;;;;;;5011303;28;20391;-73
2024/01/27 08:57:53;;;;;;;2.88;1.45;;;4.10;99.90;;;;;;5010958;28;20038;-73
2024/01/27 09:00:19;;;;;;;4.80;1.45;;;4.10;99.90;;;;;;5011173;28;20034;-73
2024/01/27 09:02:45;;;;;;;2.55;1.48;;;4.20;99.90;;;;;;5011334;28;20407;-73
2024/01/27 09:05:10;;;;;;;5.00;1.70;;;4.20;99.90;;;;;;4994719;28;20034;-73
2024/01/27 09:07:36;;;;;;;7.78;1.55;;;4.30;99.90;;;;;;5010871;28;20045;-74
2024/01/27 09:10:02;;;;;;;3.40;1.10;;;4.20;99.90;;;;;;5010930;28;20045;-73
2024/01/27 09:12:27;;;;;;;2.13;1.08;;;4.30;99.90;;;;;;5010815;28;20479;-73
2024/01/27 09:14:56;;;;;;;2.90;1.17;;;4.30;99.90;;;;;;5010396;28;20101;-73
2024/01/27 09:17:22;;;;;;;3.88;1.40;;;4.40;99.90;;;;;;4994588;28;20476;-73
2024/01/27 09:19:48;;;;;;;6.93;1.58;;;4.40;99.90;;;;;;5010933;28;20030;-73
2024/01/27 09:22:13;;;;;;;1.50;0.85;;;4.40;99.90;;;;;;5010174;28;20376;-73
2024/01/27 09:24:40;;;;;;;2.33;1.20;;;4.50;99.90;;;;;;5011272;28;20038;-73
2024/01/27 09:27:05;;;;;;;3.67;1.40;;;4.50;99.90;;;;;;5010617;28;20038;-73
2024/01/27 09:29:31;;;;;;;2.97;1.13;;;4.60;99.90;;;;;;5010341;28;20091;-73
2024/01/27 09:31:57;;;;;;;3.95;1.40;;;4.60;99.90;;;;;;5027081;28;20457;-73
2024/01/27 09:34:22;;;;;;;3.92;1.52;;;4.60;99.90;;;;;;5010294;28;20046;-73
2024/01/27 09:36:48;;;;;;;1.95;1.25;;;4.70;99.90;;;;;;5010214;28;20037;-73
2024/01/27 09:39:13;;;;;;;5.45;1.05;;;4.70;99.90;;;;;;4993908;28;20048;-73
2024/01/27 09:41:40;;;;;;;3.78;1.20;;;4.80;99.90;;;;;;5010592;28;20034;-73
2024/01/27 09:44:06;;;;;;;4.38;1.50;;;4.80;99.90;;;;;;5010313;28;20191;-74
2024/01/27 09:46:32;;;;;;;4.60;1.65;;;4.90;99.90;;;;;;5010060;28;20049;-73
2024/01/27 09:48:58;;;;;;;2.40;1.08;;;4.90;99.90;;;;;;5010675;28;20034;-73
2024/01/27 09:51:27;;;;;;;4.05;1.27;;;5.00;99.90;;;;;;4994060;28;20085;-73
2024/01/27 09:53:54;;;;;;;6.43;2.08;;;5.00;99.90;;;;;;5010186;28;20037;-73
2024/01/27 09:56:21;;;;;;;3.03;1.60;;;5.00;99.90;;;;;;5010004;28;20499;-73
2024/01/27 09:58:50;;;;;;;6.85;1.65;;;5.10;99.90;;;;;;5009900;28;20471;-73
2024/01/27 10:01:20;;;;;;;4.20;1.70;;;5.10;99.90;;;;;;5010102;28;20053;-73
2024/01/27 10:03:46;;;;;;;5.85;1.50;;;5.20;99.90;;;;;;4993527;28;20412;-73
2024/01/27 10:06:14;;;;;;;4.72;1.63;;;5.20;99.90;;;;;;5010185;28;20449;-73
2024/01/27 10:08:40;;;;;;;5.03;1.52;;;5.20;99.90;;;;;;4993725;28;20542;-73
2024/01/27 10:11:09;;;;;;;6.10;1.58;;;5.20;99.90;;;;;;4993446;28;20073;-74
2024/01/27 10:13:36;;;;;;;2.92;1.70;;;5.30;99.90;;;;;;5009801;28;20046;-73
2024/01/27 10:16:03;;;;;;;5.05;1.48;;;5.30;99.90;;;;;;5009866;28;20163;-73
2024/01/27 10:18:30;;;;;;;4.97;1.95;;;5.40;99.90;;;;;;5009798;28;20407;-73
2024/01/27 10:20:56;;;;;;;7.88;2.33;;;5.40;99.90;;;;;;5009934;28;20037;-73
2024/01/27 10:23:22;;;;;;;3.80;1.45;;;5.50;99.90;;;;;;5009649;28;20103;-73
2024/01/27 10:25:48;;;;;;;3.15;1.60;;;5.50;99.90;;;;;;5009359;28;20045;-73
2024/01/27 10:28:14;;;;;;;4.60;1.50;;;5.60;99.90;;;;;;5009425;28;20041;-73
2024/01/27 10:30:40;;;;;;;2.72;1.50;;;5.60;99.90;;;;;;4993518;28;20100;-73
2024/01/27 10:33:10;;;;;;;5.60;1.35;;;5.70;99.90;;;;;;5008785;28;20042;-73
2024/01/27 10:35:35;;;;;;;2.13;1.00;;;5.70;99.90;;;;;;5009366;28;20049;-73
2024/01/27 10:38:02;;;;;;;4.25;1.00;;;5.80;99.90;;;;;;4993273;28;20427;-73
2024/01/27 10:40:28;;;;;;;5.65;1.38;;;5.80;99.90;;;;;;5009265;28;20496;-73
2024/01/27 10:43:05;;;;;;;4.55;1.88;;;5.80;99.90;;;;;;5009425;28;20034;-73
2024/01/27 10:45:39;;;;;;;4.43;1.58;;;5.90;99.90;;;;;;5009133;28;20492;-73
2024/01/27 10:48:06;;;;;;;4.57;1.55;;;6.00;99.90;;;;;;5009552;28;20128;-73
2024/01/27 10:50:37;;;;;;;5.05;2.42;;;6.00;99.90;;;;;;5009324;28;20128;-73
2024/01/27 10:53:15;;;;;;;3.67;1.48;;;6.00;99.90;;;;;;5009561;28;20530;-73
2024/01/27 10:55:43;;;;;;;2.83;1.00;;;6.10;99.90;;;;;;5009446;28;20049;-73
2024/01/27 10:58:11;;;;;;;3.70;1.42;;;6.10;99.90;;;;;;4993240;28;20038;-73
2024/01/27 11:00:40;;;;;;;7.50;2.22;;;6.20;99.90;;;;;;5009447;28;20085;-73
2024/01/27 11:03:08;;;;;;;5.90;1.92;;;6.20;99.90;;;;;;4993367;28;20053;-73
2024/01/27 11:05:36;;;;;;;4.38;1.60;;;6.20;99.90;;;;;;5010281;28;20160;-73
2024/01/27 11:08:05;;;;;;;3.63;2.00;;;6.30;99.90;;;;;;5009298;28;20065;-73
2024/01/27 11:10:35;;;;;;;4.90;1.42;;;6.30;99.90;;;;;;5009155;28;20057;-73
2024/01/27 11:13:03;;;;;;;3.55;1.58;;;6.30;99.90;;;;;;4993306;28;20053;-73
2024/01/27 11:15:29;;;;;;;3.55;1.45;;;6.40;99.90;;;;;;5025480;28;20132;-73
2024/01/27 11:17:59;;;;;;;4.82;1.85;;;6.40;99.90;;;;;;5010210;28;20077;-73
2024/01/27 11:20:25;;;;;;;4.07;1.92;;;6.40;99.90;;;;;;5009160;28;20034;-73
2024/01/27 11:22:52;;;;;;;6.45;1.60;;;6.50;99.90;;;;;;5009174;28;20038;-73
2024/01/27 11:25:18;;;;;;;5.60;2.08;;;6.50;99.90;;;;;;5009163;28;20487;-73
2024/01/27 11:27:46;;;;;;;5.13;1.30;;;6.50;99.90;;;;;;5008734;28;20049;-73
2024/01/27 11:30:35;;;;;;;4.53;1.83;;;6.60;99.90;;;;;;5010644;28;20057;-73
2024/01/27 11:33:02;;;;;;;2.88;1.17;;;6.60;99.90;;;;;;5009445;28;20115;-73
2024/01/27 11:35:27;;;;;;;6.50;1.58;;;6.70;99.90;;;;;;5009073;28;20040;-73
2024/01/27 11:37:54;;;;;;;3.58;1.35;;;6.70;99.90;;;;;;5009136;28;20041;-73
2024/01/27 11:40:20;;;;;;;6.28;1.77;;;6.70;99.90;;;;;;5009038;28;20080;-73
2024/01/27 11:43:15;;;;;;;4.88;1.38;;;6.80;99.90;;;;;;5008870;28;20136;-73
2024/01/27 11:45:41;;;;;;;4.33;1.30;;;6.80;99.90;;;;;;4995889;28;20133;-73
2024/01/27 11:48:07;;;;;;;3.10;1.20;;;6.80;99.90;;;;;;5012540;28;20527;-73
2024/01/27 11:50:33;;;;;;;3.90;1.55;;;6.90;99.90;;;;;;5012325;28;20175;-73
2024/01/27 11:52:58;;;;;;;4.65;1.50;;;6.90;99.90;;;;;;5012591;28;20046;-74
2024/01/27 11:55:24;;;;;;;9.20;2.30;;;6.90;99.90;;;;;;5012050;28;20057;-73
2024/01/27 11:57:49;;;;;;;4.57;1.40;;;6.90;99.90;;;;;;5012153;28;20049;-73
2024/01/27 12:00:15;;;;;;;5.05;1.38;;;7.00;99.90;;;;;;5012289;28;20192;-73
2024/01/27 12:02:41;;;;;;;4.28;1.67;;;7.00;99.90;;;;;;5012392;28;20042;-73
2024/01/27 12:05:08;;;;;;;2.08;1.08;;;7.00;99.90;;;;;;5028563;28;20064;-73
2024/01/27 12:07:34;;;;;;;4.50;1.23;;;7.00;99.90;;;;;;5011873;28;20068;-73
2024/01/27 12:10:00;;;;;;;3.03;1.50;;;7.10;99.90;;;;;;5011912;28;20042;-73
2024/01/27 12:12:25;;;;;;;4.00;1.65;;;7.20;99.90;;;;;;5011969;28;20376;-73
2024/01/27 12:14:52;;;;;;;2.13;1.23;;;7.10;99.90;;;;;;4995713;28;20450;-73
2024/01/27 12:17:18;;;;;;;4.35;1.13;;;7.10;99.90;;;;;;4995621;28;20045;-73
2024/01/27 12:19:54;;;;;;;4.38;1.38;;;7.20;99.90;;;;;;4995484;28;20046;-73
2024/01/27 12:22:26;;;;;;;3.22;1.17;;;7.20;99.90;;;;;;4995398;28;20038;-72
2024/01/27 12:24:53;;;;;;;5.05;1.70;;;7.20;99.90;;;;;;5012345;28;20128;-73
2024/01/27 12:27:18;;;;;;;5.97;1.10;;;7.20;99.90;;;;;;5011436;28;20121;-73
2024/01/27 12:29:47;;;;;;;5.03;1.30;;;7.20;99.90;;;;;;4995627;28;20136;-73
2024/01/27 12:32:14;;;;;;;7.15;1.20;;;7.30;99.90;;;;;;4995582;28;20096;-73
2024/01/27 12:34:40;;;;;;;8.27;1.75;;;7.30;99.90;;;;;;5011664;28;20041;-73
2024/01/27 12:37:08;;;;;;;5.38;1.42;;;7.30;99.90;;;;;;5011341;28;20038;-72
2024/01/27 12:39:34;;;;;;;4.50;1.45;;;7.30;99.90;;;;;;5011384;28;20042;-73
2024/01/27 12:42:00;;;;;;;2.05;0.90;;;7.30;99.90;;;;;;5011854;28;20133;-73
2024/01/27 12:44:25;;;;;;;1.90;1.05;;;7.30;99.90;;;;;;5011364;28;20037;-73
2024/01/27 12:46:51;;;;;;;4.25;1.35;;;7.30;99.90;;;;;;5011220;28;20038;-73
2024/01/27 12:49:17;;;;;;;6.40;1.77;;;7.30;99.90;;;;;;5011380;28;20081;-73
2024/01/27 12:51:43;;;;;;;7.88;1.73;;;7.30;99.90;;;;;;5011150;28;20046;-73
2024/01/27 12:54:08;;;;;;;5.07;1.92;;;7.30;99.90;;;;;;5011707;28;20042;-73